This is the latest recevied weather packets stored in our database for station/object W1HVD. If no packets are shown the sender has not sent any weather packets the latest 1 day(s).
| Time | Temp. | Humidity | Pressure | Rain* | Wind** | Luminosity | Snow |
|---|---|---|---|---|---|---|---|
| 1777990706 | 20° C | 62% | 1011 hPa | 0 mm | 1.34 m/s, 156° | 578 W/m² | - |
| 1777990403 | 20° C | 61% | 1011.1 hPa | 0 mm | 1.79 m/s, 180° | 618 W/m² | - |
| 1777990100 | 19.44° C | 62% | 1011.2 hPa | 0 mm | 0.89 m/s, 254° | 602 W/m² | - |
| 1777989797 | 19.44° C | 62% | 1011.1 hPa | 0 mm | 0 m/s | 552 W/m² | - |
| 1777989494 | 18.89° C | 65% | 1011.1 hPa | 0 mm | 0.89 m/s, 237° | 569 W/m² | - |
| 1777989190 | 18.89° C | 65% | 1011.2 hPa | 0 mm | 0.45 m/s, 219° | 553 W/m² | - |
| 1777988886 | 18.89° C | 65% | 1011.2 hPa | 0 mm | 2.24 m/s, 228° | 546 W/m² | - |
| 1777988583 | 18.33° C | 67% | 1011.4 hPa | 0 mm | 0.89 m/s, 224° | 526 W/m² | - |
| 1777988280 | 18.33° C | 66% | 1011.2 hPa | 0 mm | 1.79 m/s, 184° | 518 W/m² | - |
| 1777987977 | 18.33° C | 66% | 1011.4 hPa | 0 mm | 1.34 m/s, 168° | 507 W/m² | - |
| 1777987672 | 18.33° C | 67% | 1011.6 hPa | 0 mm | 1.79 m/s, 225° | 505 W/m² | - |
| 1777987369 | 17.78° C | 69% | 1011.6 hPa | 0 mm | 0.89 m/s, 194° | 491 W/m² | - |
| 1777987067 | 17.78° C | 67% | 1011.4 hPa | 0 mm | 0.45 m/s, 141° | 472 W/m² | - |
| 1777986764 | 17.78° C | 68% | 1011.3 hPa | 0 mm | 1.34 m/s, 197° | 464 W/m² | - |
| 1777986462 | 17.78° C | 70% | 1011.3 hPa | 0 mm | 1.34 m/s, 207° | 447 W/m² | - |
| 1777986160 | 17.22° C | 68% | 1011.3 hPa | 0 mm | 0.45 m/s, 194° | 434 W/m² | - |
| 1777985857 | 16.67° C | 70% | 1011.4 hPa | 0 mm | 1.34 m/s, 217° | 421 W/m² | - |
| 1777985554 | 17.22° C | 69% | 1011.4 hPa | 0 mm | 1.79 m/s, 109° | 413 W/m² | - |
| 1777985251 | 16.67° C | 71% | 1011.5 hPa | 0 mm | 1.34 m/s, 197° | 391 W/m² | - |
| 1777984947 | 16.11° C | 72% | 1011.4 hPa | 0 mm | 1.79 m/s, 211° | 374 W/m² | - |
| 1777984643 | 16.11° C | 73% | 1011.6 hPa | 0 mm | 1.79 m/s, 189° | 349 W/m² | - |
| 1777984340 | 15.56° C | 75% | 1011.4 hPa | 0 mm | 0.89 m/s, 113° | 205 W/m² | - |
| 1777984037 | 15.56° C | 75% | 1011.6 hPa | 0 mm | 1.34 m/s, 210° | 209 W/m² | - |
| 1777983734 | 15° C | 77% | 1011.4 hPa | 0 mm | 0 m/s | 72 W/m² | - |
| 1777983430 | 15° C | 77% | 1011 hPa | 0 mm | 0.89 m/s, 233° | 70 W/m² | - |
* Rain latest hour (hover to see other rain measurements)
** Current wind speed in m/s (hover to see current wind gust speed)